If you wish to contribute or participate in the discussions about articles you are invited to join SKYbrary as a registered user

 Actions

Curaçao

From SKYbrary Wiki

TNCC
Airport
ICAO: TNCC
Summary
Name Curaçao
Region South America and Caribbean
Territory Aruba AW.gif
Location Willemstad, Curaçao, Netherlands Antilles
Serving
Coordinates 12° 11' 13.16" N, 68° 57' 34.18" W
Runways
Designator Length Width Surface ROPS
11/29 3410 m11,187.664 ft
60 m196.85 ft
ASP yes/yes


METAR
Observation TNCC 211710Z 12018G28KT 9999 FEW023 30/21 Q1012 NOSIG=
Station Hato Airport, Curacao
Date/Time 21 January 2020 17:10:00
Wind direction 120°
Wind speed 18 kts
Lowest cloud amount few clouds
Temperature 30°C
Dew point 21°C
Humidity 58%
QNH 1012 hPa
Weather condition n/a

WX
Tag(s) Tropical Revolving Storm

Curaçao/Hato International Airport

ICAO: TNCC IATA: CUR

Description

Hato International Airport or Curaçao International Airport (originally named Dr. Albert Plesman International Airport) is the airport of Willemstad, Curaçao, Netherlands Antilles. It services to the Caribbean region, South America, North America and Europe.

Climatology

Tropical Savanna climate (Köppen climate classification Aw), rarely affected directly by tropical storms as it is on the southern fringe of the Atlantic/Caribbean Hurricane Belt.

Maps

Terrain

Loading map...

Airport Layout

Loading map...


Accidents & Serious Incidents at or in vicinity of TNCC

None on SKYbrary